Aeroporto :
LOGIN :

Iscrizione | Disclaimer

   EN    FR    IT 

 










Sommario :    VFR   VFR Marginale   IFR   IFR Intensivo   IFR Molto Intensivo
Visibilità : 
Base nubi : 
>= 8 km
>= 3000ft
5 / 8 km
1000 / 3000 ft
1500m / 5 km
500 / 1000 ft
800 / 1500m
200 / 500 ft
< 800m
< 200 ft
Simboli :   Temporali  Nebbia  Neve Forte  Precipitazioni Forti  Vento > 20 kt
SIGMETs :   Varie  Temporali  Ghiacco  Turbolenza  Onda orograficha  Ceneri Vulcaniche






- Altitudine del aeroporto : 885 ft
- Codice IATA : BAS


LFSB - Bale-Mulhouse

ULTIMO METAR :
  • 042000Z AUTO 22006KT 9999 NCD 15/12 Q0999 TEMPO 4000 SHRA FEW040CB

METARs OBSOLETI :
  • 041930Z AUTO 24006KT 210V280 9999 FEW054/// BKN072/// OVC110/// 15/12 Q0998 TEMPO 4000 SHRA FEW040CB
  • 041900Z AUTO 08004KT 9999 BKN054/// BKN078/// OVC100/// 15/11 Q0998 TEMPO 4000 SHRA FEW040CB
  • 041830Z AUTO 00000KT 9999 FEW054/// SCT100/// OVC180/// 15/11 Q0998 TEMPO 4000 SHRA FEW040CB
  • 041800Z AUTO 31005KT 9999 FEW056/// BKN180/// 16/11 Q0998 TEMPO 4000 SHRA FEW040CB
  • 041730Z AUTO 30008KT 9999 BKN046/// BKN052/// BKN062/// ///CB 16/11 Q0998 TEMPO 4000 SHRA

TAF TAF LFSB
Valido dal 04 a 18 ore il 05 a 18 ore UTC


041700Z 0418/0518 23008KT 9999 SCT040 BKN070
TEMPO 0418/0424 4000 SHRA FEW040CB
PROB40
TEMPO 0418/0419 TSRA
TEMPO 0506/0512 SHRA FEW030TCU
TEMPO 0512/0518 26015G30KT
Met : +33 3 89 90 31 11



MetMap, La meteo Aeronautica in un colpo d'occhio ! - Copyright ORBIFLY Dicembre 2007 - Disclaimer

ORBIFLY MET'MAP TEAM :

Programmazione e sviluppo : Alexandra Zaïnal
Concezione : Baudouin d'Aumeries
Aiuto per la programmazione : Marc-Olivier Méhu
Supporto tecnico e logistico : Manuel Goepfert
Aiuto per la traduzione : Arnaldo La Scala

Contatto : metmap@orbifly.com




FONTI E CREDITI :

   NOAA